sensor_id;sensor_type;location;lat;lon;timestamp;pressure;altitude;pressure_sealevel;temperature;humidity
45621;BME280;31345;51.522;10.702;2023-08-24T00:02:06;99411.28;;;16.03;100.00
45621;BME280;31345;51.522;10.702;2023-08-24T00:04:39;99414.03;;;16.23;100.00
45621;BME280;31345;51.522;10.702;2023-08-24T00:07:12;99418.06;;;16.39;100.00
45621;BME280;31345;51.522;10.702;2023-08-24T00:09:45;99423.63;;;16.45;100.00
45621;BME280;31345;51.522;10.702;2023-08-24T00:12:18;99425.00;;;16.40;100.00
45621;BME280;31345;51.522;10.702;2023-08-24T00:14:50;99426.44;;;16.44;100.00
45621;BME280;31345;51.522;10.702;2023-08-24T00:17:23;99424.31;;;16.38;100.00
45621;BME280;31345;51.522;10.702;2023-08-24T00:19:56;99427.28;;;16.12;100.00
45621;BME280;31345;51.522;10.702;2023-08-24T00:22:30;99425.75;;;15.88;100.00
45621;BME280;31345;51.522;10.702;2023-08-24T00:25:04;99425.06;;;15.86;100.00
45621;BME280;31345;51.522;10.702;2023-08-24T00:27:37;99422.66;;;15.82;100.00
45621;BME280;31345;51.522;10.702;2023-08-24T00:30:10;99413.34;;;15.78;100.00
45621;BME280;31345;51.522;10.702;2023-08-24T00:32:38;99425.63;;;15.89;100.00
45621;BME280;31345;51.522;10.702;2023-08-24T00:35:10;99419.81;;;15.74;100.00
45621;BME280;31345;51.522;10.702;2023-08-24T00:37:44;99424.41;;;15.72;100.00
45621;BME280;31345;51.522;10.702;2023-08-24T00:40:17;99426.97;;;15.84;100.00
45621;BME280;31345;51.522;10.702;2023-08-24T00:42:50;99426.38;;;15.80;100.00
45621;BME280;31345;51.522;10.702;2023-08-24T00:45:22;99426.22;;;15.93;100.00
45621;BME280;31345;51.522;10.702;2023-08-24T00:47:55;99418.44;;;16.13;100.00
45621;BME280;31345;51.522;10.702;2023-08-24T00:50:28;99413.09;;;16.24;100.00
45621;BME280;31345;51.522;10.702;2023-08-24T00:53:02;99414.31;;;15.99;100.00
45621;BME280;31345;51.522;10.702;2023-08-24T00:55:35;99406.75;;;15.73;100.00
45621;BME280;31345;51.522;10.702;2023-08-24T00:58:08;99412.88;;;15.73;100.00
45621;BME280;31345;51.522;10.702;2023-08-24T01:00:41;99412.31;;;15.91;100.00
45621;BME280;31345;51.522;10.702;2023-08-24T01:03:16;99415.66;;;15.93;100.00
45621;BME280;31345;51.522;10.702;2023-08-24T01:05:49;99413.22;;;16.01;100.00
45621;BME280;31345;51.522;10.702;2023-08-24T01:08:24;99406.88;;;15.71;100.00
45621;BME280;31345;51.522;10.702;2023-08-24T01:11:01;99409.06;;;15.66;100.00
45621;BME280;31345;51.522;10.702;2023-08-24T01:13:40;99399.06;;;15.81;100.00
45621;BME280;31345;51.522;10.702;2023-08-24T01:16:20;99402.00;;;15.88;100.00
45621;BME280;31345;51.522;10.702;2023-08-24T01:18:54;99402.84;;;15.88;100.00
45621;BME280;31345;51.522;10.702;2023-08-24T01:21:28;99401.69;;;15.81;100.00
45621;BME280;31345;51.522;10.702;2023-08-24T01:24:12;99394.94;;;15.67;100.00
45621;BME280;31345;51.522;10.702;2023-08-24T01:26:48;99395.66;;;15.90;100.00
45621;BME280;31345;51.522;10.702;2023-08-24T01:29:22;99395.16;;;15.97;100.00
45621;BME280;31345;51.522;10.702;2023-08-24T01:31:55;99396.75;;;15.88;100.00
45621;BME280;31345;51.522;10.702;2023-08-24T01:34:27;99391.19;;;15.69;100.00
45621;BME280;31345;51.522;10.702;2023-08-24T01:37:01;99397.38;;;15.80;100.00
45621;BME280;31345;51.522;10.702;2023-08-24T01:39:41;99402.91;;;15.77;100.00
45621;BME280;31345;51.522;10.702;2023-08-24T01:42:20;99389.53;;;15.68;100.00
45621;BME280;31345;51.522;10.702;2023-08-24T01:44:56;99383.38;;;15.58;100.00
45621;BME280;31345;51.522;10.702;2023-08-24T01:47:32;99381.88;;;15.65;100.00
45621;BME280;31345;51.522;10.702;2023-08-24T01:50:06;99383.50;;;15.78;100.00
45621;BME280;31345;51.522;10.702;2023-08-24T01:52:39;99384.16;;;15.91;100.00
45621;BME280;31345;51.522;10.702;2023-08-24T01:55:13;99381.06;;;15.65;100.00
45621;BME280;31345;51.522;10.702;2023-08-24T01:57:48;99394.81;;;15.68;100.00
45621;BME280;31345;51.522;10.702;2023-08-24T02:00:16;99388.63;;;15.79;100.00
45621;BME280;31345;51.522;10.702;2023-08-24T02:02:51;99391.63;;;15.86;100.00
45621;BME280;31345;51.522;10.702;2023-08-24T02:05:19;99388.25;;;15.84;100.00
45621;BME280;31345;51.522;10.702;2023-08-24T02:07:56;99381.69;;;15.78;100.00
45621;BME280;31345;51.522;10.702;2023-08-24T02:10:31;99378.94;;;15.80;100.00
45621;BME280;31345;51.522;10.702;2023-08-24T02:13:04;99380.53;;;15.71;100.00
45621;BME280;31345;51.522;10.702;2023-08-24T02:15:37;99383.09;;;15.61;100.00
45621;BME280;31345;51.522;10.702;2023-08-24T02:18:11;99382.50;;;15.58;100.00
45621;BME280;31345;51.522;10.702;2023-08-24T02:20:43;99381.63;;;15.68;100.00
45621;BME280;31345;51.522;10.702;2023-08-24T02:23:16;99378.41;;;15.65;100.00
45621;BME280;31345;51.522;10.702;2023-08-24T02:25:48;99374.94;;;15.64;100.00
45621;BME280;31345;51.522;10.702;2023-08-24T02:28:22;99366.63;;;15.48;100.00
45621;BME280;31345;51.522;10.702;2023-08-24T02:31:00;99370.34;;;15.45;100.00
45621;BME280;31345;51.522;10.702;2023-08-24T02:33:33;99362.69;;;15.42;100.00
45621;BME280;31345;51.522;10.702;2023-08-24T02:36:06;99358.44;;;15.29;100.00
45621;BME280;31345;51.522;10.702;2023-08-24T02:38:38;99359.53;;;15.27;100.00
45621;BME280;31345;51.522;10.702;2023-08-24T02:41:07;99361.19;;;15.28;100.00
45621;BME280;31345;51.522;10.702;2023-08-24T02:43:43;99363.41;;;15.11;100.00
45621;BME280;31345;51.522;10.702;2023-08-24T02:46:16;99361.34;;;15.15;100.00
45621;BME280;31345;51.522;10.702;2023-08-24T02:48:49;99353.81;;;15.22;100.00
45621;BME280;31345;51.522;10.702;2023-08-24T02:51:23;99360.22;;;15.29;100.00
45621;BME280;31345;51.522;10.702;2023-08-24T02:53:56;99360.72;;;15.23;100.00
45621;BME280;31345;51.522;10.702;2023-08-24T02:56:29;99356.59;;;15.09;100.00
45621;BME280;31345;51.522;10.702;2023-08-24T02:59:03;99352.50;;;14.93;100.00
45621;BME280;31345;51.522;10.702;2023-08-24T03:01:30;99345.81;;;15.12;100.00
45621;BME280;31345;51.522;10.702;2023-08-24T03:04:03;99349.22;;;15.24;100.00
45621;BME280;31345;51.522;10.702;2023-08-24T03:06:36;99343.72;;;15.27;100.00
45621;BME280;31345;51.522;10.702;2023-08-24T03:09:08;99345.16;;;15.20;100.00
45621;BME280;31345;51.522;10.702;2023-08-24T03:11:41;99349.50;;;15.09;100.00
45621;BME280;31345;51.522;10.702;2023-08-24T03:14:12;99347.84;;;14.85;100.00
45621;BME280;31345;51.522;10.702;2023-08-24T03:16:45;99345.56;;;15.03;100.00
45621;BME280;31345;51.522;10.702;2023-08-24T03:19:12;99352.00;;;15.11;100.00
45621;BME280;31345;51.522;10.702;2023-08-24T03:21:45;99354.31;;;15.04;100.00
45621;BME280;31345;51.522;10.702;2023-08-24T03:24:18;99353.56;;;15.13;100.00
45621;BME280;31345;51.522;10.702;2023-08-24T03:26:51;99348.38;;;15.23;100.00
45621;BME280;31345;51.522;10.702;2023-08-24T03:29:26;99351.91;;;14.89;100.00
45621;BME280;31345;51.522;10.702;2023-08-24T03:31:59;99345.94;;;14.87;100.00
45621;BME280;31345;51.522;10.702;2023-08-24T03:34:31;99341.88;;;14.95;100.00
45621;BME280;31345;51.522;10.702;2023-08-24T03:37:05;99342.47;;;14.98;100.00
45621;BME280;31345;51.522;10.702;2023-08-24T03:39:38;99336.00;;;14.91;100.00
45621;BME280;31345;51.522;10.702;2023-08-24T03:42:11;99340.00;;;14.74;100.00
45621;BME280;31345;51.522;10.702;2023-08-24T03:44:45;99341.56;;;14.53;100.00
45621;BME280;31345;51.522;10.702;2023-08-24T03:47:12;99339.25;;;14.72;100.00
45621;BME280;31345;51.522;10.702;2023-08-24T03:49:45;99341.44;;;14.66;100.00
45621;BME280;31345;51.522;10.702;2023-08-24T03:52:18;99345.72;;;14.68;100.00
45621;BME280;31345;51.522;10.702;2023-08-24T03:54:50;99344.88;;;14.78;100.00
45621;BME280;31345;51.522;10.702;2023-08-24T03:57:23;99340.47;;;14.79;100.00
45621;BME280;31345;51.522;10.702;2023-08-24T03:59:57;99339.63;;;14.67;100.00
45621;BME280;31345;51.522;10.702;2023-08-24T04:02:29;99342.97;;;14.81;100.00
45621;BME280;31345;51.522;10.702;2023-08-24T04:05:02;99338.53;;;14.81;100.00
45621;BME280;31345;51.522;10.702;2023-08-24T04:07:35;99344.06;;;14.66;100.00
45621;BME280;31345;51.522;10.702;2023-08-24T04:10:11;99340.59;;;14.55;100.00
45621;BME280;31345;51.522;10.702;2023-08-24T04:12:43;99347.66;;;14.54;100.00
45621;BME280;31345;51.522;10.702;2023-08-24T04:15:12;99352.31;;;14.62;100.00
45621;BME280;31345;51.522;10.702;2023-08-24T04:17:45;99355.28;;;14.57;100.00
45621;BME280;31345;51.522;10.702;2023-08-24T04:20:18;99352.94;;;14.43;100.00
45621;BME280;31345;51.522;10.702;2023-08-24T04:22:50;99350.63;;;14.26;100.00
45621;BME280;31345;51.522;10.702;2023-08-24T04:25:23;99351.84;;;14.45;100.00
45621;BME280;31345;51.522;10.702;2023-08-24T04:27:56;99359.25;;;14.51;100.00
45621;BME280;31345;51.522;10.702;2023-08-24T04:30:30;99365.13;;;14.55;100.00
45621;BME280;31345;51.522;10.702;2023-08-24T04:33:03;99364.28;;;14.55;100.00
45621;BME280;31345;51.522;10.702;2023-08-24T04:35:36;99358.16;;;14.65;100.00
45621;BME280;31345;51.522;10.702;2023-08-24T04:38:08;99366.53;;;14.48;100.00
45621;BME280;31345;51.522;10.702;2023-08-24T04:40:49;99371.22;;;14.56;100.00
45621;BME280;31345;51.522;10.702;2023-08-24T04:43:23;99365.56;;;14.37;100.00
45621;BME280;31345;51.522;10.702;2023-08-24T04:45:57;99361.41;;;14.35;100.00
45621;BME280;31345;51.522;10.702;2023-08-24T04:48:30;99357.47;;;14.63;100.00
45621;BME280;31345;51.522;10.702;2023-08-24T04:51:05;99358.31;;;14.64;100.00
45621;BME280;31345;51.522;10.702;2023-08-24T04:53:38;99358.44;;;14.62;100.00
45621;BME280;31345;51.522;10.702;2023-08-24T04:56:10;99359.75;;;14.68;100.00
45621;BME280;31345;51.522;10.702;2023-08-24T04:58:38;99360.56;;;14.69;100.00
45621;BME280;31345;51.522;10.702;2023-08-24T05:01:12;99357.69;;;14.60;100.00
45621;BME280;31345;51.522;10.702;2023-08-24T05:03:45;99365.00;;;14.45;100.00
45621;BME280;31345;51.522;10.702;2023-08-24T05:06:13;99358.78;;;14.46;100.00
45621;BME280;31345;51.522;10.702;2023-08-24T05:08:46;99352.06;;;14.65;100.00
45621;BME280;31345;51.522;10.702;2023-08-24T05:11:19;99352.31;;;14.73;100.00
45621;BME280;31345;51.522;10.702;2023-08-24T05:13:52;99353.84;;;14.76;100.00
45621;BME280;31345;51.522;10.702;2023-08-24T05:16:26;99356.81;;;14.83;100.00
45621;BME280;31345;51.522;10.702;2023-08-24T05:19:00;99359.13;;;14.76;100.00
45621;BME280;31345;51.522;10.702;2023-08-24T05:21:34;99355.53;;;14.65;100.00
45621;BME280;31345;51.522;10.702;2023-08-24T05:24:06;99350.38;;;14.75;100.00
45621;BME280;31345;51.522;10.702;2023-08-24T05:26:34;99349.41;;;14.88;100.00
45621;BME280;31345;51.522;10.702;2023-08-24T05:29:07;99347.84;;;14.85;100.00
45621;BME280;31345;51.522;10.702;2023-08-24T05:31:36;99348.94;;;14.83;100.00
45621;BME280;31345;51.522;10.702;2023-08-24T05:34:08;99336.47;;;14.96;100.00
45621;BME280;31345;51.522;10.702;2023-08-24T05:36:41;99338.59;;;15.14;100.00
45621;BME280;31345;51.522;10.702;2023-08-24T05:39:13;99346.47;;;15.25;100.00
45621;BME280;31345;51.522;10.702;2023-08-24T05:41:46;99343.31;;;15.32;100.00
45621;BME280;31345;51.522;10.702;2023-08-24T05:44:22;99328.13;;;15.35;100.00
45621;BME280;31345;51.522;10.702;2023-08-24T05:46:56;99322.31;;;15.41;100.00
45621;BME280;31345;51.522;10.702;2023-08-24T05:49:29;99329.75;;;15.69;100.00
45621;BME280;31345;51.522;10.702;2023-08-24T05:52:02;99337.84;;;15.77;100.00
45621;BME280;31345;51.522;10.702;2023-08-24T05:54:36;99348.59;;;15.86;100.00
45621;BME280;31345;51.522;10.702;2023-08-24T05:57:08;99348.09;;;15.92;100.00
45621;BME280;31345;51.522;10.702;2023-08-24T05:59:41;99345.50;;;16.02;100.00
45621;BME280;31345;51.522;10.702;2023-08-24T06:02:15;99346.25;;;16.14;100.00
45621;BME280;31345;51.522;10.702;2023-08-24T06:04:47;99350.38;;;16.28;100.00
45621;BME280;31345;51.522;10.702;2023-08-24T06:07:17;99363.66;;;16.48;100.00
45621;BME280;31345;51.522;10.702;2023-08-24T06:09:44;99366.28;;;16.79;100.00
45621;BME280;31345;51.522;10.702;2023-08-24T06:12:17;99370.22;;;16.94;100.00
45621;BME280;31345;51.522;10.702;2023-08-24T06:14:49;99377.31;;;17.14;100.00
45621;BME280;31345;51.522;10.702;2023-08-24T06:17:23;99376.94;;;17.28;100.00
45621;BME280;31345;51.522;10.702;2023-08-24T06:19:51;99372.88;;;17.44;100.00
45621;BME280;31345;51.522;10.702;2023-08-24T06:22:23;99368.88;;;17.59;100.00
45621;BME280;31345;51.522;10.702;2023-08-24T06:24:56;99366.22;;;17.79;100.00
45621;BME280;31345;51.522;10.702;2023-08-24T06:27:30;99364.00;;;17.94;100.00
45621;BME280;31345;51.522;10.702;2023-08-24T06:30:05;99365.75;;;18.13;100.00
45621;BME280;31345;51.522;10.702;2023-08-24T06:32:39;99364.47;;;18.27;100.00
45621;BME280;31345;51.522;10.702;2023-08-24T06:35:12;99363.41;;;18.48;100.00
45621;BME280;31345;51.522;10.702;2023-08-24T06:37:46;99356.78;;;18.72;100.00
45621;BME280;31345;51.522;10.702;2023-08-24T06:40:15;99355.81;;;18.91;100.00
45621;BME280;31345;51.522;10.702;2023-08-24T06:42:44;99357.84;;;19.08;100.00
45621;BME280;31345;51.522;10.702;2023-08-24T06:45:17;99349.59;;;19.11;100.00
45621;BME280;31345;51.522;10.702;2023-08-24T06:47:51;99351.53;;;19.09;100.00
45621;BME280;31345;51.522;10.702;2023-08-24T06:50:24;99341.56;;;19.02;100.00
45621;BME280;31345;51.522;10.702;2023-08-24T06:52:57;99345.03;;;19.03;100.00
45621;BME280;31345;51.522;10.702;2023-08-24T06:55:30;99337.00;;;18.95;100.00
45621;BME280;31345;51.522;10.702;2023-08-24T06:58:03;99335.78;;;18.89;100.00
45621;BME280;31345;51.522;10.702;2023-08-24T07:00:36;99328.38;;;18.93;100.00
45621;BME280;31345;51.522;10.702;2023-08-24T07:03:10;99326.53;;;18.93;100.00
45621;BME280;31345;51.522;10.702;2023-08-24T07:05:43;99321.47;;;19.00;100.00
45621;BME280;31345;51.522;10.702;2023-08-24T07:08:16;99318.22;;;19.06;100.00
45621;BME280;31345;51.522;10.702;2023-08-24T07:10:48;99310.28;;;19.06;100.00
45621;BME280;31345;51.522;10.702;2023-08-24T07:13:21;99302.69;;;19.11;100.00
45621;BME280;31345;51.522;10.702;2023-08-24T07:15:53;99299.59;;;19.16;100.00
45621;BME280;31345;51.522;10.702;2023-08-24T07:18:27;99300.38;;;19.08;100.00
45621;BME280;31345;51.522;10.702;2023-08-24T07:21:00;99305.06;;;19.14;100.00
45621;BME280;31345;51.522;10.702;2023-08-24T07:23:28;99301.66;;;19.22;100.00
45621;BME280;31345;51.522;10.702;2023-08-24T07:26:00;99299.44;;;19.36;100.00
45621;BME280;31345;51.522;10.702;2023-08-24T07:28:33;99302.31;;;19.42;100.00
45621;BME280;31345;51.522;10.702;2023-08-24T07:31:08;99295.13;;;19.53;100.00
45621;BME280;31345;51.522;10.702;2023-08-24T07:33:44;99302.16;;;19.62;100.00
45621;BME280;31345;51.522;10.702;2023-08-24T07:36:16;99294.25;;;19.71;100.00
45621;BME280;31345;51.522;10.702;2023-08-24T07:38:49;99303.53;;;19.66;100.00
45621;BME280;31345;51.522;10.702;2023-08-24T07:41:22;99311.06;;;19.79;100.00
45621;BME280;31345;51.522;10.702;2023-08-24T07:43:55;99312.44;;;19.84;100.00
45621;BME280;31345;51.522;10.702;2023-08-24T07:46:28;99307.81;;;19.94;100.00
45621;BME280;31345;51.522;10.702;2023-08-24T07:49:02;99315.63;;;19.96;100.00
45621;BME280;31345;51.522;10.702;2023-08-24T07:51:35;99311.78;;;19.90;100.00
45621;BME280;31345;51.522;10.702;2023-08-24T07:54:08;99303.47;;;19.85;100.00
45621;BME280;31345;51.522;10.702;2023-08-24T07:56:36;99304.66;;;19.90;100.00
45621;BME280;31345;51.522;10.702;2023-08-24T07:59:08;99305.97;;;19.86;100.00
45621;BME280;31345;51.522;10.702;2023-08-24T08:01:41;99301.03;;;19.91;100.00
45621;BME280;31345;51.522;10.702;2023-08-24T08:04:15;99303.06;;;19.98;100.00
45621;BME280;31345;51.522;10.702;2023-08-24T08:06:48;99305.72;;;19.98;100.00
45621;BME280;31345;51.522;10.702;2023-08-24T08:09:20;99294.25;;;19.97;100.00
45621;BME280;31345;51.522;10.702;2023-08-24T08:11:56;99295.25;;;19.96;100.00
45621;BME280;31345;51.522;10.702;2023-08-24T08:14:28;99299.06;;;19.93;100.00
45621;BME280;31345;51.522;10.702;2023-08-24T08:17:01;99286.25;;;19.89;100.00
45621;BME280;31345;51.522;10.702;2023-08-24T08:19:30;99291.25;;;19.92;100.00
45621;BME280;31345;51.522;10.702;2023-08-24T08:22:03;99291.09;;;19.93;100.00
45621;BME280;31345;51.522;10.702;2023-08-24T08:24:35;99294.22;;;19.89;100.00
45621;BME280;31345;51.522;10.702;2023-08-24T08:27:08;99284.47;;;19.98;100.00
45621;BME280;31345;51.522;10.702;2023-08-24T08:29:41;99287.78;;;20.00;100.00
45621;BME280;31345;51.522;10.702;2023-08-24T08:32:14;99279.53;;;20.03;100.00
45621;BME280;31345;51.522;10.702;2023-08-24T08:34:43;99276.91;;;20.11;100.00
45621;BME280;31345;51.522;10.702;2023-08-24T08:37:16;99276.94;;;20.19;100.00
45621;BME280;31345;51.522;10.702;2023-08-24T08:39:48;99269.84;;;20.28;100.00
45621;BME280;31345;51.522;10.702;2023-08-24T08:42:21;99265.69;;;20.26;100.00
45621;BME280;31345;51.522;10.702;2023-08-24T08:44:53;99260.09;;;20.37;100.00
45621;BME280;31345;51.522;10.702;2023-08-24T08:47:27;99258.78;;;20.41;100.00
45621;BME280;31345;51.522;10.702;2023-08-24T08:50:02;99255.44;;;20.39;100.00
45621;BME280;31345;51.522;10.702;2023-08-24T08:52:35;99253.31;;;20.43;98.72
45621;BME280;31345;51.522;10.702;2023-08-24T08:55:07;99245.84;;;20.47;97.63
45621;BME280;31345;51.522;10.702;2023-08-24T08:57:42;99229.28;;;20.53;96.67
45621;BME280;31345;51.522;10.702;2023-08-24T09:00:15;99228.66;;;20.67;98.53
45621;BME280;31345;51.522;10.702;2023-08-24T09:02:45;99206.59;;;20.75;91.39
45621;BME280;31345;51.522;10.702;2023-08-24T09:05:19;99195.81;;;20.93;95.54
45621;BME280;31345;51.522;10.702;2023-08-24T09:07:53;99191.31;;;20.94;93.94
45621;BME280;31345;51.522;10.702;2023-08-24T09:10:27;99180.84;;;20.84;90.10
45621;BME280;31345;51.522;10.702;2023-08-24T09:12:59;99182.38;;;20.95;91.25
45621;BME280;31345;51.522;10.702;2023-08-24T09:15:27;99189.66;;;20.93;95.40
45621;BME280;31345;51.522;10.702;2023-08-24T09:18:00;99177.88;;;20.95;94.46
45621;BME280;31345;51.522;10.702;2023-08-24T09:20:35;99176.88;;;21.05;91.01
45621;BME280;31345;51.522;10.702;2023-08-24T09:23:17;99169.41;;;21.00;88.32
45621;BME280;31345;51.522;10.702;2023-08-24T09:25:50;99165.56;;;21.03;86.47
45621;BME280;31345;51.522;10.702;2023-08-24T09:28:23;99168.91;;;21.13;91.67
45621;BME280;31345;51.522;10.702;2023-08-24T09:31:00;99178.50;;;21.31;93.04
45621;BME280;31345;51.522;10.702;2023-08-24T09:33:33;99185.78;;;21.45;94.62
45621;BME280;31345;51.522;10.702;2023-08-24T09:36:09;99177.16;;;21.52;88.92
45621;BME280;31345;51.522;10.702;2023-08-24T09:38:46;99185.06;;;21.68;89.15
45621;BME280;31345;51.522;10.702;2023-08-24T09:41:20;99172.25;;;21.80;89.71
45621;BME280;31345;51.522;10.702;2023-08-24T09:43:52;99178.50;;;21.96;90.52
45621;BME280;31345;51.522;10.702;2023-08-24T09:46:25;99177.66;;;21.95;87.21
45621;BME280;31345;51.522;10.702;2023-08-24T09:48:57;99172.13;;;22.05;86.97
45621;BME280;31345;51.522;10.702;2023-08-24T09:51:34;99181.75;;;22.06;87.84
45621;BME280;31345;51.522;10.702;2023-08-24T09:54:09;99173.09;;;22.12;nan
45621;BME280;31345;51.522;10.702;2023-08-24T09:56:42;99177.69;;;22.27;85.79
45621;BME280;31345;51.522;10.702;2023-08-24T09:59:16;99175.31;;;22.32;82.62
45621;BME280;31345;51.522;10.702;2023-08-24T10:01:50;99171.78;;;22.40;85.64
45621;BME280;31345;51.522;10.702;2023-08-24T10:04:30;99175.97;;;22.43;85.61
45621;BME280;31345;51.522;10.702;2023-08-24T10:07:08;99176.72;;;22.51;88.89
45621;BME280;31345;51.522;10.702;2023-08-24T10:09:50;99162.69;;;22.58;87.50
45621;BME280;31345;51.522;10.702;2023-08-24T10:12:28;99157.72;;;22.55;85.89
45621;BME280;31345;51.522;10.702;2023-08-24T10:15:01;99155.34;;;22.60;84.60
45621;BME280;31345;51.522;10.702;2023-08-24T10:17:36;99147.00;;;22.63;80.25
45621;BME280;31345;51.522;10.702;2023-08-24T10:20:10;99143.63;;;22.69;83.40
45621;BME280;31345;51.522;10.702;2023-08-24T10:22:46;99143.56;;;22.77;77.13
45621;BME280;31345;51.522;10.702;2023-08-24T10:25:20;99140.41;;;22.97;82.07
45621;BME280;31345;51.522;10.702;2023-08-24T10:27:57;99132.25;;;23.14;80.87
45621;BME280;31345;51.522;10.702;2023-08-24T10:30:25;99124.00;;;23.24;77.58
45621;BME280;31345;51.522;10.702;2023-08-24T10:33:02;99123.06;;;23.32;74.55
45621;BME280;31345;51.522;10.702;2023-08-24T10:35:35;99126.38;;;23.49;79.34
45621;BME280;31345;51.522;10.702;2023-08-24T10:38:22;99114.59;;;23.58;71.68
45621;BME280;31345;51.522;10.702;2023-08-24T10:41:02;99115.09;;;23.84;73.79
45621;BME280;31345;51.522;10.702;2023-08-24T10:43:35;99114.88;;;24.00;77.12
45621;BME280;31345;51.522;10.702;2023-08-24T10:46:03;99103.75;;;24.12;70.06
45621;BME280;31345;51.522;10.702;2023-08-24T10:48:57;99100.72;;;24.00;69.93
45621;BME280;31345;51.522;10.702;2023-08-24T10:51:24;99092.38;;;24.25;73.77
45621;BME280;31345;51.522;10.702;2023-08-24T10:54:00;99103.19;;;24.38;77.20
45621;BME280;31345;51.522;10.702;2023-08-24T10:56:36;99092.00;;;24.78;71.29
45621;BME280;31345;51.522;10.702;2023-08-24T10:59:10;99095.34;;;25.09;67.35
45621;BME280;31345;51.522;10.702;2023-08-24T11:01:55;99089.47;;;25.27;70.79
45621;BME280;31345;51.522;10.702;2023-08-24T11:04:28;99088.44;;;25.28;72.99
45621;BME280;31345;51.522;10.702;2023-08-24T11:07:01;99088.94;;;25.45;72.68
45621;BME280;31345;51.522;10.702;2023-08-24T11:09:47;99085.75;;;25.64;70.59
45621;BME280;31345;51.522;10.702;2023-08-24T11:12:20;99079.81;;;25.75;72.39
45621;BME280;31345;51.522;10.702;2023-08-24T11:14:53;99075.09;;;25.77;69.09
45621;BME280;31345;51.522;10.702;2023-08-24T11:17:30;99072.28;;;25.99;70.29
45621;BME280;31345;51.522;10.702;2023-08-24T11:20:04;99076.22;;;26.17;69.93
45621;BME280;31345;51.522;10.702;2023-08-24T11:22:37;99067.09;;;25.97;62.77
45621;BME280;31345;51.522;10.702;2023-08-24T11:25:12;99081.59;;;26.23;66.89
45621;BME280;31345;51.522;10.702;2023-08-24T11:27:45;99075.00;;;26.33;66.76
45621;BME280;31345;51.522;10.702;2023-08-24T11:30:18;99088.63;;;26.45;67.46
45621;BME280;31345;51.522;10.702;2023-08-24T11:32:51;99079.97;;;26.49;67.20
45621;BME280;31345;51.522;10.702;2023-08-24T11:35:25;99082.44;;;26.65;66.97
45621;BME280;31345;51.522;10.702;2023-08-24T11:37:58;99069.25;;;26.49;61.92
45621;BME280;31345;51.522;10.702;2023-08-24T11:40:31;99073.16;;;26.60;67.09
45621;BME280;31345;51.522;10.702;2023-08-24T11:43:04;99077.09;;;26.51;65.12
45621;BME280;31345;51.522;10.702;2023-08-24T11:45:33;99072.56;;;26.58;59.84
45621;BME280;31345;51.522;10.702;2023-08-24T11:48:07;99077.28;;;26.90;63.14
45621;BME280;31345;51.522;10.702;2023-08-24T11:50:40;99072.94;;;26.89;63.25
45621;BME280;31345;51.522;10.702;2023-08-24T11:53:13;99064.50;;;26.79;58.14
45621;BME280;31345;51.522;10.702;2023-08-24T11:55:47;99070.88;;;26.91;59.15
45621;BME280;31345;51.522;10.702;2023-08-24T11:58:20;99060.53;;;27.15;60.67
45621;BME280;31345;51.522;10.702;2023-08-24T12:00:53;99058.41;;;27.31;54.79
45621;BME280;31345;51.522;10.702;2023-08-24T12:03:25;99057.78;;;27.35;58.88
45621;BME280;31345;51.522;10.702;2023-08-24T12:05:59;99053.03;;;27.31;59.62
45621;BME280;31345;51.522;10.702;2023-08-24T12:08:37;99061.28;;;27.43;60.03
45621;BME280;31345;51.522;10.702;2023-08-24T12:11:12;99049.47;;;27.50;59.13
45621;BME280;31345;51.522;10.702;2023-08-24T12:13:48;99053.56;;;27.53;58.40
45621;BME280;31345;51.522;10.702;2023-08-24T12:16:18;99047.75;;;27.63;60.25
45621;BME280;31345;51.522;10.702;2023-08-24T12:18:54;99044.94;;;27.51;57.13
45621;BME280;31345;51.522;10.702;2023-08-24T12:21:28;99034.56;;;27.61;59.78
45621;BME280;31345;51.522;10.702;2023-08-24T12:23:56;99034.84;;;27.85;56.82
45621;BME280;31345;51.522;10.702;2023-08-24T12:26:27;99023.50;;;27.83;55.76
45621;BME280;31345;51.522;10.702;2023-08-24T12:29:00;99019.59;;;27.79;58.25
45621;BME280;31345;51.522;10.702;2023-08-24T12:31:34;99016.91;;;27.79;57.35
45621;BME280;31345;51.522;10.702;2023-08-24T12:34:07;99018.63;;;27.67;58.62
45621;BME280;31345;51.522;10.702;2023-08-24T12:36:41;99000.97;;;27.45;54.30
45621;BME280;31345;51.522;10.702;2023-08-24T12:39:15;98995.03;;;27.69;57.79
45621;BME280;31345;51.522;10.702;2023-08-24T12:41:44;98985.97;;;27.70;56.17
45621;BME280;31345;51.522;10.702;2023-08-24T12:44:16;98991.13;;;27.78;54.53
45621;BME280;31345;51.522;10.702;2023-08-24T12:46:49;98981.88;;;27.60;55.03
45621;BME280;31345;51.522;10.702;2023-08-24T12:49:21;98997.97;;;27.99;61.45
45621;BME280;31345;51.522;10.702;2023-08-24T12:51:54;98993.13;;;27.83;58.27
45621;BME280;31345;51.522;10.702;2023-08-24T12:54:26;98988.66;;;28.02;59.37
45621;BME280;31345;51.522;10.702;2023-08-24T12:57:00;98963.69;;;27.62;54.18
45621;BME280;31345;51.522;10.702;2023-08-24T12:59:28;98975.53;;;27.87;59.93
45621;BME280;31345;51.522;10.702;2023-08-24T13:01:56;98966.47;;;27.81;56.80
45621;BME280;31345;51.522;10.702;2023-08-24T13:04:28;98965.47;;;27.82;57.52
45621;BME280;31345;51.522;10.702;2023-08-24T13:06:56;98960.91;;;27.76;59.13
45621;BME280;31345;51.522;10.702;2023-08-24T13:09:29;98950.34;;;27.81;56.29
45621;BME280;31345;51.522;10.702;2023-08-24T13:12:03;98953.03;;;27.88;58.04
45621;BME280;31345;51.522;10.702;2023-08-24T13:14:36;98953.75;;;27.70;57.34